sensor_id;sensor_type;location;lat;lon;timestamp;P1;durP1;ratioP1;P2;durP2;ratioP2
21519;SDS011;10921;53.614;9.882;2022-08-14T00:00:59;10.02;;;9.27;;
21519;SDS011;10921;53.614;9.882;2022-08-14T00:03:35;10.15;;;9.25;;
21519;SDS011;10921;53.614;9.882;2022-08-14T00:06:03;10.02;;;9.00;;
21519;SDS011;10921;53.614;9.882;2022-08-14T00:08:49;12.65;;;9.40;;
21519;SDS011;10921;53.614;9.882;2022-08-14T00:11:18;9.73;;;8.70;;
21519;SDS011;10921;53.614;9.882;2022-08-14T00:13:45;10.18;;;9.25;;
21519;SDS011;10921;53.614;9.882;2022-08-14T00:16:18;10.30;;;9.38;;
21519;SDS011;10921;53.614;9.882;2022-08-14T00:19:05;10.77;;;9.60;;
21519;SDS011;10921;53.614;9.882;2022-08-14T00:21:47;10.70;;;9.70;;
21519;SDS011;10921;53.614;9.882;2022-08-14T00:24:16;10.73;;;9.68;;
21519;SDS011;10921;53.614;9.882;2022-08-14T00:26:53;11.13;;;9.75;;
21519;SDS011;10921;53.614;9.882;2022-08-14T00:29:20;11.30;;;9.88;;
21519;SDS011;10921;53.614;9.882;2022-08-14T00:34:22;13.88;;;9.82;;
21519;SDS011;10921;53.614;9.882;2022-08-14T00:37:09;16.27;;;10.30;;
21519;SDS011;10921;53.614;9.882;2022-08-14T00:39:37;11.77;;;10.73;;
21519;SDS011;10921;53.614;9.882;2022-08-14T00:42:05;14.93;;;10.00;;
21519;SDS011;10921;53.614;9.882;2022-08-14T00:44:46;14.45;;;10.02;;
21519;SDS011;10921;53.614;9.882;2022-08-14T00:47:14;10.60;;;9.60;;
21519;SDS011;10921;53.614;9.882;2022-08-14T00:49:42;10.88;;;9.95;;
21519;SDS011;10921;53.614;9.882;2022-08-14T00:52:11;11.07;;;9.88;;
21519;SDS011;10921;53.614;9.882;2022-08-14T00:54:44;11.68;;;10.07;;
21519;SDS011;10921;53.614;9.882;2022-08-14T00:57:12;10.68;;;9.57;;
21519;SDS011;10921;53.614;9.882;2022-08-14T00:59:39;10.48;;;9.48;;
21519;SDS011;10921;53.614;9.882;2022-08-14T01:02:06;10.23;;;9.35;;
21519;SDS011;10921;53.614;9.882;2022-08-14T01:04:34;15.70;;;9.63;;
21519;SDS011;10921;53.614;9.882;2022-08-14T01:07:18;11.18;;;9.60;;
21519;SDS011;10921;53.614;9.882;2022-08-14T01:09:47;10.30;;;9.38;;
21519;SDS011;10921;53.614;9.882;2022-08-14T01:12:27;9.75;;;8.82;;
21519;SDS011;10921;53.614;9.882;2022-08-14T01:15:06;9.52;;;8.73;;
21519;SDS011;10921;53.614;9.882;2022-08-14T01:17:35;9.70;;;8.90;;
21519;SDS011;10921;53.614;9.882;2022-08-14T01:20:20;9.40;;;8.48;;
21519;SDS011;10921;53.614;9.882;2022-08-14T01:23:10;9.82;;;8.80;;
21519;SDS011;10921;53.614;9.882;2022-08-14T01:25:44;9.68;;;8.88;;
21519;SDS011;10921;53.614;9.882;2022-08-14T01:28:16;9.73;;;8.85;;
21519;SDS011;10921;53.614;9.882;2022-08-14T01:31:05;9.68;;;8.88;;
21519;SDS011;10921;53.614;9.882;2022-08-14T01:33:34;9.77;;;8.60;;
21519;SDS011;10921;53.614;9.882;2022-08-14T01:36:26;10.02;;;9.00;;
21519;SDS011;10921;53.614;9.882;2022-08-14T01:39:00;10.52;;;8.95;;
21519;SDS011;10921;53.614;9.882;2022-08-14T01:41:38;9.80;;;8.77;;
21519;SDS011;10921;53.614;9.882;2022-08-14T01:44:07;10.27;;;9.07;;
21519;SDS011;10921;53.614;9.882;2022-08-14T01:46:57;13.70;;;8.93;;
21519;SDS011;10921;53.614;9.882;2022-08-14T01:49:26;11.27;;;8.80;;
21519;SDS011;10921;53.614;9.882;2022-08-14T01:52:00;10.40;;;8.70;;
21519;SDS011;10921;53.614;9.882;2022-08-14T01:54:34;9.15;;;8.35;;
21519;SDS011;10921;53.614;9.882;2022-08-14T01:57:03;9.15;;;8.25;;
21519;SDS011;10921;53.614;9.882;2022-08-14T01:59:36;9.45;;;8.65;;
21519;SDS011;10921;53.614;9.882;2022-08-14T02:02:09;8.75;;;7.88;;
21519;SDS011;10921;53.614;9.882;2022-08-14T02:04:45;9.50;;;8.38;;
21519;SDS011;10921;53.614;9.882;2022-08-14T02:07:22;9.75;;;8.60;;
21519;SDS011;10921;53.614;9.882;2022-08-14T02:10:10;9.85;;;8.85;;
21519;SDS011;10921;53.614;9.882;2022-08-14T02:12:41;9.30;;;8.40;;
21519;SDS011;10921;53.614;9.882;2022-08-14T02:15:09;9.30;;;8.40;;
21519;SDS011;10921;53.614;9.882;2022-08-14T02:17:37;9.55;;;8.75;;
21519;SDS011;10921;53.614;9.882;2022-08-14T02:20:04;10.75;;;8.85;;
21519;SDS011;10921;53.614;9.882;2022-08-14T02:22:33;9.90;;;8.63;;
21519;SDS011;10921;53.614;9.882;2022-08-14T02:25:12;8.98;;;8.15;;
21519;SDS011;10921;53.614;9.882;2022-08-14T02:27:41;8.85;;;8.07;;
21519;SDS011;10921;53.614;9.882;2022-08-14T02:30:29;9.02;;;8.32;;
21519;SDS011;10921;53.614;9.882;2022-08-14T02:32:57;10.43;;;8.25;;
21519;SDS011;10921;53.614;9.882;2022-08-14T02:35:24;11.13;;;8.88;;
21519;SDS011;10921;53.614;9.882;2022-08-14T02:37:58;9.95;;;9.05;;
21519;SDS011;10921;53.614;9.882;2022-08-14T02:40:26;8.68;;;7.97;;
21519;SDS011;10921;53.614;9.882;2022-08-14T02:42:58;10.88;;;8.45;;
21519;SDS011;10921;53.614;9.882;2022-08-14T02:45:28;9.25;;;8.35;;
21519;SDS011;10921;53.614;9.882;2022-08-14T02:48:10;9.57;;;8.65;;
21519;SDS011;10921;53.614;9.882;2022-08-14T02:50:57;9.25;;;8.35;;
21519;SDS011;10921;53.614;9.882;2022-08-14T02:53:25;11.02;;;8.90;;
21519;SDS011;10921;53.614;9.882;2022-08-14T02:55:54;9.68;;;8.68;;
21519;SDS011;10921;53.614;9.882;2022-08-14T02:58:28;9.23;;;8.32;;
21519;SDS011;10921;53.614;9.882;2022-08-14T03:00:56;9.15;;;8.23;;
21519;SDS011;10921;53.614;9.882;2022-08-14T03:03:24;9.82;;;8.93;;
21519;SDS011;10921;53.614;9.882;2022-08-14T03:05:51;8.85;;;7.90;;
21519;SDS011;10921;53.614;9.882;2022-08-14T03:08:20;9.15;;;8.15;;
21519;SDS011;10921;53.614;9.882;2022-08-14T03:10:47;9.15;;;8.43;;
21519;SDS011;10921;53.614;9.882;2022-08-14T03:13:16;9.85;;;8.73;;
21519;SDS011;10921;53.614;9.882;2022-08-14T03:15:47;8.60;;;7.90;;
21519;SDS011;10921;53.614;9.882;2022-08-14T03:18:22;9.43;;;8.48;;
21519;SDS011;10921;53.614;9.882;2022-08-14T03:21:00;8.77;;;8.07;;
21519;SDS011;10921;53.614;9.882;2022-08-14T03:23:28;9.20;;;8.40;;
21519;SDS011;10921;53.614;9.882;2022-08-14T03:26:04;10.05;;;9.02;;
21519;SDS011;10921;53.614;9.882;2022-08-14T03:28:33;8.50;;;7.82;;
21519;SDS011;10921;53.614;9.882;2022-08-14T03:31:02;9.13;;;8.23;;
21519;SDS011;10921;53.614;9.882;2022-08-14T03:33:33;9.07;;;8.38;;
21519;SDS011;10921;53.614;9.882;2022-08-14T03:36:06;9.55;;;8.55;;
21519;SDS011;10921;53.614;9.882;2022-08-14T03:38:59;8.93;;;8.02;;
21519;SDS011;10921;53.614;9.882;2022-08-14T03:41:41;10.02;;;8.95;;
21519;SDS011;10921;53.614;9.882;2022-08-14T03:44:08;8.88;;;8.13;;
21519;SDS011;10921;53.614;9.882;2022-08-14T03:46:54;10.27;;;8.70;;
21519;SDS011;10921;53.614;9.882;2022-08-14T03:49:21;8.65;;;7.95;;
21519;SDS011;10921;53.614;9.882;2022-08-14T03:51:55;9.73;;;8.77;;
21519;SDS011;10921;53.614;9.882;2022-08-14T03:54:26;9.50;;;8.52;;
21519;SDS011;10921;53.614;9.882;2022-08-14T03:56:53;9.15;;;8.40;;
21519;SDS011;10921;53.614;9.882;2022-08-14T03:59:28;9.13;;;8.32;;
21519;SDS011;10921;53.614;9.882;2022-08-14T04:01:54;9.75;;;8.20;;
21519;SDS011;10921;53.614;9.882;2022-08-14T04:04:28;9.25;;;8.30;;
21519;SDS011;10921;53.614;9.882;2022-08-14T04:06:56;9.65;;;8.77;;
21519;SDS011;10921;53.614;9.882;2022-08-14T04:09:24;9.20;;;8.40;;
21519;SDS011;10921;53.614;9.882;2022-08-14T04:11:52;9.15;;;8.45;;
21519;SDS011;10921;53.614;9.882;2022-08-14T04:14:21;9.23;;;8.32;;
21519;SDS011;10921;53.614;9.882;2022-08-14T04:16:48;9.77;;;8.10;;
21519;SDS011;10921;53.614;9.882;2022-08-14T04:19:15;14.40;;;8.35;;
21519;SDS011;10921;53.614;9.882;2022-08-14T04:21:44;8.80;;;7.97;;
21519;SDS011;10921;53.614;9.882;2022-08-14T04:24:32;9.30;;;8.50;;
21519;SDS011;10921;53.614;9.882;2022-08-14T04:27:07;8.85;;;8.15;;
21519;SDS011;10921;53.614;9.882;2022-08-14T04:29:38;11.45;;;8.25;;
21519;SDS011;10921;53.614;9.882;2022-08-14T04:32:08;9.38;;;8.60;;
21519;SDS011;10921;53.614;9.882;2022-08-14T04:34:56;9.68;;;8.48;;
21519;SDS011;10921;53.614;9.882;2022-08-14T04:37:22;8.88;;;8.02;;
21519;SDS011;10921;53.614;9.882;2022-08-14T04:40:08;8.88;;;8.02;;
21519;SDS011;10921;53.614;9.882;2022-08-14T04:42:54;8.30;;;7.60;;
21519;SDS011;10921;53.614;9.882;2022-08-14T04:45:43;9.27;;;8.38;;
21519;SDS011;10921;53.614;9.882;2022-08-14T04:48:13;8.77;;;8.05;;
21519;SDS011;10921;53.614;9.882;2022-08-14T04:51:05;10.48;;;8.35;;
21519;SDS011;10921;53.614;9.882;2022-08-14T04:53:37;8.63;;;7.75;;
21519;SDS011;10921;53.614;9.882;2022-08-14T04:56:12;8.98;;;8.18;;
21519;SDS011;10921;53.614;9.882;2022-08-14T04:59:01;10.23;;;8.63;;
21519;SDS011;10921;53.614;9.882;2022-08-14T05:01:36;9.63;;;8.70;;
21519;SDS011;10921;53.614;9.882;2022-08-14T05:04:10;9.27;;;8.30;;
21519;SDS011;10921;53.614;9.882;2022-08-14T05:06:45;8.88;;;8.02;;
21519;SDS011;10921;53.614;9.882;2022-08-14T05:09:14;9.50;;;8.57;;
21519;SDS011;10921;53.614;9.882;2022-08-14T05:11:42;10.23;;;8.45;;
21519;SDS011;10921;53.614;9.882;2022-08-14T05:14:09;8.90;;;8.05;;
21519;SDS011;10921;53.614;9.882;2022-08-14T05:16:56;9.95;;;8.07;;
21519;SDS011;10921;53.614;9.882;2022-08-14T05:19:27;8.68;;;7.93;;
21519;SDS011;10921;53.614;9.882;2022-08-14T05:21:57;11.25;;;8.70;;
21519;SDS011;10921;53.614;9.882;2022-08-14T05:24:43;8.98;;;8.07;;
21519;SDS011;10921;53.614;9.882;2022-08-14T05:27:16;10.48;;;8.02;;
21519;SDS011;10921;53.614;9.882;2022-08-14T05:29:49;8.82;;;7.95;;
21519;SDS011;10921;53.614;9.882;2022-08-14T05:32:18;8.32;;;7.72;;
21519;SDS011;10921;53.614;9.882;2022-08-14T05:34:45;9.70;;;8.00;;
21519;SDS011;10921;53.614;9.882;2022-08-14T05:37:12;9.05;;;8.23;;
21519;SDS011;10921;53.614;9.882;2022-08-14T05:39:40;9.23;;;7.78;;
21519;SDS011;10921;53.614;9.882;2022-08-14T05:42:07;8.35;;;7.60;;
21519;SDS011;10921;53.614;9.882;2022-08-14T05:44:46;9.02;;;8.10;;
21519;SDS011;10921;53.614;9.882;2022-08-14T05:47:14;8.30;;;7.50;;
21519;SDS011;10921;53.614;9.882;2022-08-14T05:49:42;8.07;;;7.00;;
21519;SDS011;10921;53.614;9.882;2022-08-14T05:52:09;9.10;;;7.82;;
21519;SDS011;10921;53.614;9.882;2022-08-14T05:54:42;10.07;;;7.57;;
21519;SDS011;10921;53.614;9.882;2022-08-14T05:57:09;10.93;;;7.80;;
21519;SDS011;10921;53.614;9.882;2022-08-14T05:59:36;8.10;;;7.40;;
21519;SDS011;10921;53.614;9.882;2022-08-14T06:02:05;8.85;;;7.93;;
21519;SDS011;10921;53.614;9.882;2022-08-14T06:04:35;7.95;;;7.35;;
21519;SDS011;10921;53.614;9.882;2022-08-14T06:07:02;8.65;;;7.75;;
21519;SDS011;10921;53.614;9.882;2022-08-14T06:09:29;8.48;;;7.78;;
21519;SDS011;10921;53.614;9.882;2022-08-14T06:12:05;8.70;;;7.90;;
21519;SDS011;10921;53.614;9.882;2022-08-14T06:14:36;12.55;;;7.60;;
21519;SDS011;10921;53.614;9.882;2022-08-14T06:17:04;10.77;;;8.25;;
21519;SDS011;10921;53.614;9.882;2022-08-14T06:19:30;12.10;;;7.85;;
21519;SDS011;10921;53.614;9.882;2022-08-14T06:21:57;8.38;;;7.57;;
21519;SDS011;10921;53.614;9.882;2022-08-14T06:24:25;8.40;;;7.60;;
21519;SDS011;10921;53.614;9.882;2022-08-14T06:27:01;8.25;;;7.57;;
21519;SDS011;10921;53.614;9.882;2022-08-14T06:29:35;8.82;;;7.75;;
21519;SDS011;10921;53.614;9.882;2022-08-14T06:32:03;13.73;;;7.30;;
21519;SDS011;10921;53.614;9.882;2022-08-14T06:34:50;11.57;;;7.50;;
21519;SDS011;10921;53.614;9.882;2022-08-14T06:40:07;8.40;;;7.53;;
21519;SDS011;10921;53.614;9.882;2022-08-14T06:42:52;15.82;;;8.18;;
21519;SDS011;10921;53.614;9.882;2022-08-14T06:45:21;8.55;;;7.70;;
21519;SDS011;10921;53.614;9.882;2022-08-14T06:47:52;9.63;;;7.90;;
21519;SDS011;10921;53.614;9.882;2022-08-14T06:50:20;11.18;;;7.38;;
21519;SDS011;10921;53.614;9.882;2022-08-14T06:52:54;11.55;;;7.50;;
21519;SDS011;10921;53.614;9.882;2022-08-14T06:55:21;9.32;;;8.18;;
21519;SDS011;10921;53.614;9.882;2022-08-14T06:57:53;8.15;;;7.53;;
21519;SDS011;10921;53.614;9.882;2022-08-14T07:00:22;8.38;;;7.57;;
21519;SDS011;10921;53.614;9.882;2022-08-14T07:02:53;10.18;;;7.78;;
21519;SDS011;10921;53.614;9.882;2022-08-14T07:05:39;9.05;;;8.10;;
21519;SDS011;10921;53.614;9.882;2022-08-14T07:10:56;12.25;;;8.40;;
21519;SDS011;10921;53.614;9.882;2022-08-14T07:13:26;8.50;;;7.70;;
21519;SDS011;10921;53.614;9.882;2022-08-14T07:15:54;9.10;;;7.63;;
21519;SDS011;10921;53.614;9.882;2022-08-14T07:18:24;12.65;;;7.85;;
21519;SDS011;10921;53.614;9.882;2022-08-14T07:23:21;9.00;;;7.90;;
21519;SDS011;10921;53.614;9.882;2022-08-14T07:25:55;8.55;;;7.75;;
21519;SDS011;10921;53.614;9.882;2022-08-14T07:28:25;9.10;;;8.20;;
21519;SDS011;10921;53.614;9.882;2022-08-14T07:31:10;9.85;;;8.00;;
21519;SDS011;10921;53.614;9.882;2022-08-14T07:33:39;11.13;;;8.05;;
21519;SDS011;10921;53.614;9.882;2022-08-14T07:36:15;8.20;;;7.55;;
21519;SDS011;10921;53.614;9.882;2022-08-14T07:38:54;12.18;;;8.38;;
21519;SDS011;10921;53.614;9.882;2022-08-14T07:41:21;10.88;;;7.88;;
21519;SDS011;10921;53.614;9.882;2022-08-14T07:43:47;8.93;;;8.13;;
21519;SDS011;10921;53.614;9.882;2022-08-14T07:46:21;13.60;;;8.07;;
21519;SDS011;10921;53.614;9.882;2022-08-14T07:48:56;14.35;;;8.00;;
21519;SDS011;10921;53.614;9.882;2022-08-14T07:51:23;8.75;;;7.93;;
21519;SDS011;10921;53.614;9.882;2022-08-14T07:53:59;10.32;;;8.40;;
21519;SDS011;10921;53.614;9.882;2022-08-14T07:56:25;8.35;;;7.55;;
21519;SDS011;10921;53.614;9.882;2022-08-14T07:59:13;11.20;;;8.25;;
21519;SDS011;10921;53.614;9.882;2022-08-14T08:01:43;14.05;;;8.10;;
21519;SDS011;10921;53.614;9.882;2022-08-14T08:04:18;9.35;;;7.63;;
21519;SDS011;10921;53.614;9.882;2022-08-14T08:06:50;8.85;;;7.95;;
21519;SDS011;10921;53.614;9.882;2022-08-14T08:09:19;10.98;;;8.48;;
21519;SDS011;10921;53.614;9.882;2022-08-14T08:11:57;10.77;;;8.77;;
21519;SDS011;10921;53.614;9.882;2022-08-14T08:14:31;10.60;;;8.50;;
21519;SDS011;10921;53.614;9.882;2022-08-14T08:17:19;9.50;;;8.30;;
21519;SDS011;10921;53.614;9.882;2022-08-14T08:19:49;10.20;;;8.02;;
21519;SDS011;10921;53.614;9.882;2022-08-14T08:22:16;9.13;;;8.20;;
21519;SDS011;10921;53.614;9.882;2022-08-14T08:24:43;9.30;;;8.40;;
21519;SDS011;10921;53.614;9.882;2022-08-14T08:27:14;9.35;;;8.30;;
21519;SDS011;10921;53.614;9.882;2022-08-14T08:29:42;9.77;;;8.40;;
21519;SDS011;10921;53.614;9.882;2022-08-14T08:32:16;18.75;;;8.02;;
21519;SDS011;10921;53.614;9.882;2022-08-14T08:34:44;10.63;;;8.77;;
21519;SDS011;10921;53.614;9.882;2022-08-14T08:37:12;10.02;;;8.40;;
21519;SDS011;10921;53.614;9.882;2022-08-14T08:39:43;10.32;;;8.20;;
21519;SDS011;10921;53.614;9.882;2022-08-14T08:42:29;12.00;;;8.20;;
21519;SDS011;10921;53.614;9.882;2022-08-14T08:45:09;9.32;;;8.52;;
21519;SDS011;10921;53.614;9.882;2022-08-14T08:47:38;10.15;;;8.68;;
21519;SDS011;10921;53.614;9.882;2022-08-14T08:50:14;8.95;;;7.90;;
21519;SDS011;10921;53.614;9.882;2022-08-14T08:52:56;9.70;;;8.30;;
21519;SDS011;10921;53.614;9.882;2022-08-14T08:55:35;10.45;;;8.30;;
21519;SDS011;10921;53.614;9.882;2022-08-14T08:58:08;11.43;;;8.27;;
21519;SDS011;10921;53.614;9.882;2022-08-14T09:00:49;10.52;;;8.15;;
21519;SDS011;10921;53.614;9.882;2022-08-14T09:03:21;10.68;;;7.90;;
21519;SDS011;10921;53.614;9.882;2022-08-14T09:06:00;10.43;;;8.55;;
21519;SDS011;10921;53.614;9.882;2022-08-14T09:08:50;9.48;;;8.35;;
21519;SDS011;10921;53.614;9.882;2022-08-14T09:11:17;10.70;;;8.45;;
21519;SDS011;10921;53.614;9.882;2022-08-14T09:13:50;9.30;;;8.35;;
21519;SDS011;10921;53.614;9.882;2022-08-14T09:16:22;9.30;;;8.50;;
21519;SDS011;10921;53.614;9.882;2022-08-14T09:18:51;14.00;;;8.65;;
21519;SDS011;10921;53.614;9.882;2022-08-14T09:21:20;11.60;;;8.10;;
21519;SDS011;10921;53.614;9.882;2022-08-14T09:23:51;11.02;;;8.20;;
21519;SDS011;10921;53.614;9.882;2022-08-14T09:26:40;8.52;;;7.78;;
21519;SDS011;10921;53.614;9.882;2022-08-14T09:29:09;8.32;;;7.70;;
21519;SDS011;10921;53.614;9.882;2022-08-14T09:31:38;9.40;;;7.95;;
21519;SDS011;10921;53.614;9.882;2022-08-14T09:37:38;9.02;;;8.15;;
21519;SDS011;10921;53.614;9.882;2022-08-14T09:40:13;10.77;;;7.75;;
21519;SDS011;10921;53.614;9.882;2022-08-14T09:42:59;18.48;;;8.10;;
21519;SDS011;10921;53.614;9.882;2022-08-14T09:45:45;10.23;;;7.75;;
21519;SDS011;10921;53.614;9.882;2022-08-14T09:48:22;8.10;;;7.40;;
21519;SDS011;10921;53.614;9.882;2022-08-14T09:50:56;10.73;;;7.68;;
21519;SDS011;10921;53.614;9.882;2022-08-14T09:56:16;11.88;;;8.27;;
21519;SDS011;10921;53.614;9.882;2022-08-14T09:58:56;10.07;;;8.43;;
21519;SDS011;10921;53.614;9.882;2022-08-14T10:01:35;11.40;;;8.27;;
21519;SDS011;10921;53.614;9.882;2022-08-14T10:04:04;8.65;;;7.82;;
21519;SDS011;10921;53.614;9.882;2022-08-14T10:06:50;11.80;;;7.85;;
21519;SDS011;10921;53.614;9.882;2022-08-14T10:09:17;12.70;;;8.05;;
21519;SDS011;10921;53.614;9.882;2022-08-14T10:11:53;8.10;;;7.40;;
21519;SDS011;10921;53.614;9.882;2022-08-14T10:14:27;9.02;;;8.13;;
21519;SDS011;10921;53.614;9.882;2022-08-14T10:17:02;9.93;;;8.05;;
21519;SDS011;10921;53.614;9.882;2022-08-14T10:19:32;11.20;;;7.93;;
21519;SDS011;10921;53.614;9.882;2022-08-14T10:24:55;9.27;;;8.13;;
21519;SDS011;10921;53.614;9.882;2022-08-14T10:27:25;13.60;;;8.40;;
21519;SDS011;10921;53.614;9.882;2022-08-14T10:29:56;9.00;;;8.00;;
21519;SDS011;10921;53.614;9.882;2022-08-14T10:32:29;9.60;;;8.60;;
21519;SDS011;10921;53.614;9.882;2022-08-14T10:35:17;10.15;;;8.98;;
21519;SDS011;10921;53.614;9.882;2022-08-14T10:37:48;10.10;;;8.93;;
21519;SDS011;10921;53.614;9.882;2022-08-14T10:40:29;9.75;;;8.30;;
21519;SDS011;10921;53.614;9.882;2022-08-14T10:43:19;8.95;;;8.10;;
21519;SDS011;10921;53.614;9.882;2022-08-14T10:45:53;11.85;;;7.88;;
21519;SDS011;10921;53.614;9.882;2022-08-14T10:48:56;9.10;;;8.30;;
21519;SDS011;10921;53.614;9.882;2022-08-14T10:51:30;11.63;;;8.68;;
21519;SDS011;10921;53.614;9.882;2022-08-14T10:54:06;10.18;;;8.93;;
21519;SDS011;10921;53.614;9.882;2022-08-14T10:56:55;10.23;;;8.75;;
21519;SDS011;10921;53.614;9.882;2022-08-14T10:59:23;10.55;;;9.20;;
21519;SDS011;10921;53.614;9.882;2022-08-14T11:02:03;10.27;;;9.30;;
21519;SDS011;10921;53.614;9.882;2022-08-14T11:04:42;10.25;;;9.00;;
21519;SDS011;10921;53.614;9.882;2022-08-14T11:07:12;10.00;;;9.05;;
21519;SDS011;10921;53.614;9.882;2022-08-14T11:09:56;10.10;;;9.10;;
21519;SDS011;10921;53.614;9.882;2022-08-14T11:12:25;10.20;;;9.13;;
21519;SDS011;10921;53.614;9.882;2022-08-14T11:15:06;11.38;;;10.48;;
21519;SDS011;10921;53.614;9.882;2022-08-14T11:17:33;11.27;;;10.20;;
21519;SDS011;10921;53.614;9.882;2022-08-14T11:20:04;10.38;;;9.35;;
21519;SDS011;10921;53.614;9.882;2022-08-14T11:22:41;16.83;;;10.18;;
21519;SDS011;10921;53.614;9.882;2022-08-14T11:25:23;12.05;;;9.43;;
21519;SDS011;10921;53.614;9.882;2022-08-14T11:28:12;11.50;;;9.13;;
21519;SDS011;10921;53.614;9.882;2022-08-14T11:30:44;13.52;;;9.85;;
21519;SDS011;10921;53.614;9.882;2022-08-14T11:33:22;11.23;;;9.50;;
21519;SDS011;10921;53.614;9.882;2022-08-14T11:35:58;12.15;;;9.98;;
21519;SDS011;10921;53.614;9.882;2022-08-14T11:38:27;12.63;;;10.05;;
21519;SDS011;10921;53.614;9.882;2022-08-14T11:41:03;10.20;;;9.18;;
21519;SDS011;10921;53.614;9.882;2022-08-14T11:43:42;10.15;;;9.25;;
21519;SDS011;10921;53.614;9.882;2022-08-14T11:46:23;9.82;;;8.93;;
21519;SDS011;10921;53.614;9.882;2022-08-14T11:49:03;13.80;;;9.75;;
21519;SDS011;10921;53.614;9.882;2022-08-14T11:51:31;10.52;;;8.70;;
21519;SDS011;10921;53.614;9.882;2022-08-14T11:54:19;9.77;;;8.80;;
21519;SDS011;10921;53.614;9.882;2022-08-14T11:57:00;14.65;;;9.57;;
21519;SDS011;10921;53.614;9.882;2022-08-14T11:59:29;9.80;;;8.98;;
21519;SDS011;10921;53.614;9.882;2022-08-14T12:02:15;12.20;;;9.00;;
21519;SDS011;10921;53.614;9.882;2022-08-14T12:05:02;9.98;;;9.10;;
21519;SDS011;10921;53.614;9.882;2022-08-14T12:07:34;10.43;;;9.38;;
21519;SDS011;10921;53.614;9.882;2022-08-14T12:10:01;13.20;;;9.52;;
21519;SDS011;10921;53.614;9.882;2022-08-14T12:12:47;12.50;;;8.95;;
21519;SDS011;10921;53.614;9.882;2022-08-14T12:15:26;14.23;;;8.75;;
21519;SDS011;10921;53.614;9.882;2022-08-14T12:17:54;10.63;;;9.15;;
21519;SDS011;10921;53.614;9.882;2022-08-14T12:20:28;10.18;;;9.05;;
21519;SDS011;10921;53.614;9.882;2022-08-14T12:22:58;11.65;;;9.43;;
21519;SDS011;10921;53.614;9.882;2022-08-14T12:25:26;10.48;;;9.27;;
21519;SDS011;10921;53.614;9.882;2022-08-14T12:27:54;9.93;;;9.00;;
21519;SDS011;10921;53.614;9.882;2022-08-14T12:30:41;10.40;;;9.40;;
21519;SDS011;10921;53.614;9.882;2022-08-14T12:35:49;10.32;;;9.35;;
21519;SDS011;10921;53.614;9.882;2022-08-14T12:41:21;11.80;;;10.00;;
21519;SDS011;10921;53.614;9.882;2022-08-14T12:44:00;12.15;;;9.75;;
21519;SDS011;10921;53.614;9.882;2022-08-14T12:46:31;12.65;;;9.40;;
21519;SDS011;10921;53.614;9.882;2022-08-14T12:49:02;14.60;;;9.98;;
21519;SDS011;10921;53.614;9.882;2022-08-14T12:51:54;10.15;;;9.10;;
21519;SDS011;10921;53.614;9.882;2022-08-14T12:54:22;10.13;;;9.33;;
21519;SDS011;10921;53.614;9.882;2022-08-14T12:57:12;10.95;;;9.02;;
21519;SDS011;10921;53.614;9.882;2022-08-14T12:59:45;9.85;;;8.85;;
21519;SDS011;10921;53.614;9.882;2022-08-14T13:02:23;9.77;;;8.77;;
21519;SDS011;10921;53.614;9.882;2022-08-14T13:04:53;18.00;;;10.53;;
21519;SDS011;10921;53.614;9.882;2022-08-14T13:07:21;10.35;;;9.35;;
21519;SDS011;10921;53.614;9.882;2022-08-14T13:09:53;14.07;;;9.85;;
21519;SDS011;10921;53.614;9.882;2022-08-14T13:12:22;17.83;;;10.10;;
21519;SDS011;10921;53.614;9.882;2022-08-14T13:15:11;11.10;;;9.82;;
21519;SDS011;10921;53.614;9.882;2022-08-14T13:17:41;11.38;;;10.18;;
21519;SDS011;10921;53.614;9.882;2022-08-14T13:20:17;11.48;;;10.25;;
21519;SDS011;10921;53.614;9.882;2022-08-14T13:22:50;10.77;;;9.68;;
21519;SDS011;10921;53.614;9.882;2022-08-14T13:25:19;10.65;;;9.65;;
21519;SDS011;10921;53.614;9.882;2022-08-14T13:27:51;10.75;;;9.75;;
21519;SDS011;10921;53.614;9.882;2022-08-14T13:30:20;12.25;;;9.18;;
21519;SDS011;10921;53.614;9.882;2022-08-14T13:32:51;13.32;;;9.27;;
21519;SDS011;10921;53.614;9.882;2022-08-14T13:35:23;16.70;;;9.48;;
21519;SDS011;10921;53.614;9.882;2022-08-14T13:37:50;10.63;;;9.52;;
21519;SDS011;10921;53.614;9.882;2022-08-14T13:40:19;10.03;;;9.13;;
21519;SDS011;10921;53.614;9.882;2022-08-14T13:42:52;11.40;;;9.32;;
21519;SDS011;10921;53.614;9.882;2022-08-14T13:45:22;11.73;;;9.40;;
21519;SDS011;10921;53.614;9.882;2022-08-14T13:48:11;9.90;;;9.02;;
21519;SDS011;10921;53.614;9.882;2022-08-14T13:50:58;9.98;;;9.02;;
21519;SDS011;10921;53.614;9.882;2022-08-14T13:53:27;9.80;;;8.82;;
21519;SDS011;10921;53.614;9.882;2022-08-14T13:55:58;9.85;;;8.95;;
21519;SDS011;10921;53.614;9.882;2022-08-14T13:58:27;9.70;;;8.90;;
21519;SDS011;10921;53.614;9.882;2022-08-14T14:01:00;10.23;;;9.23;;
21519;SDS011;10921;53.614;9.882;2022-08-14T14:03:29;11.35;;;8.80;;
21519;SDS011;10921;53.614;9.882;2022-08-14T14:06:01;10.00;;;9.10;;
21519;SDS011;10921;53.614;9.882;2022-08-14T14:08:28;10.20;;;8.50;;
21519;SDS011;10921;53.614;9.882;2022-08-14T14:11:09;10.18;;;9.18;;
21519;SDS011;10921;53.614;9.882;2022-08-14T14:13:36;10.32;;;9.02;;
21519;SDS011;10921;53.614;9.882;2022-08-14T14:16:10;9.88;;;8.98;;
21519;SDS011;10921;53.614;9.882;2022-08-14T14:18:40;10.10;;;9.10;;
21519;SDS011;10921;53.614;9.882;2022-08-14T14:21:11;9.93;;;9.02;;
21519;SDS011;10921;53.614;9.882;2022-08-14T14:23:39;10.35;;;8.85;;
21519;SDS011;10921;53.614;9.882;2022-08-14T14:26:07;11.10;;;8.70;;
21519;SDS011;10921;53.614;9.882;2022-08-14T14:28:39;11.05;;;7.90;;
21519;SDS011;10921;53.614;9.882;2022-08-14T14:31:07;8.93;;;7.50;;
21519;SDS011;10921;53.614;9.882;2022-08-14T14:33:40;9.13;;;7.68;;
21519;SDS011;10921;53.614;9.882;2022-08-14T14:36:15;11.68;;;7.47;;
21519;SDS011;10921;53.614;9.882;2022-08-14T14:38:49;16.02;;;7.47;;
21519;SDS011;10921;53.614;9.882;2022-08-14T14:41:17;14.77;;;7.82;;
21519;SDS011;10921;53.614;9.882;2022-08-14T14:43:49;10.77;;;7.93;;
21519;SDS011;10921;53.614;9.882;2022-08-14T14:46:20;10.48;;;7.32;;
21519;SDS011;10921;53.614;9.882;2022-08-14T14:49:03;9.07;;;7.70;;
21519;SDS011;10921;53.614;9.882;2022-08-14T14:51:33;9.13;;;8.05;;
21519;SDS011;10921;53.614;9.882;2022-08-14T14:54:00;9.68;;;7.57;;
21519;SDS011;10921;53.614;9.882;2022-08-14T14:56:28;11.10;;;7.60;;
21519;SDS011;10921;53.614;9.882;2022-08-14T14:59:16;10.02;;;7.72;;
21519;SDS011;10921;53.614;9.882;2022-08-14T15:01:46;10.85;;;7.97;;
21519;SDS011;10921;53.614;9.882;2022-08-14T15:04:14;9.32;;;8.18;;
21519;SDS011;10921;53.614;9.882;2022-08-14T15:06:46;9.00;;;8.10;;
21519;SDS011;10921;53.614;9.882;2022-08-14T15:09:14;9.10;;;8.00;;
21519;SDS011;10921;53.614;9.882;2022-08-14T15:14:10;12.20;;;8.30;;
21519;SDS011;10921;53.614;9.882;2022-08-14T15:16:57;9.18;;;8.32;;
21519;SDS011;10921;53.614;9.882;2022-08-14T15:19:25;8.50;;;7.80;;
21519;SDS011;10921;53.614;9.882;2022-08-14T15:21:53;10.23;;;9.13;;
21519;SDS011;10921;53.614;9.882;2022-08-14T15:24:20;11.63;;;8.40;;
21519;SDS011;10921;53.614;9.882;2022-08-14T15:26:52;9.25;;;7.78;;
21519;SDS011;10921;53.614;9.882;2022-08-14T15:29:19;8.65;;;7.82;;
21519;SDS011;10921;53.614;9.882;2022-08-14T15:31:45;10.43;;;8.57;;
21519;SDS011;10921;53.614;9.882;2022-08-14T15:34:12;12.90;;;8.10;;
21519;SDS011;10921;53.614;9.882;2022-08-14T15:37:04;9.40;;;8.18;;
21519;SDS011;10921;53.614;9.882;2022-08-14T15:39:37;9.68;;;8.40;;
21519;SDS011;10921;53.614;9.882;2022-08-14T15:44:41;8.82;;;7.93;;
21519;SDS011;10921;53.614;9.882;2022-08-14T15:47:21;8.82;;;7.97;;
21519;SDS011;10921;53.614;9.882;2022-08-14T15:49:53;8.50;;;7.70;;